CheckWX is a tool to help pilots better visualize weather data.  It is not intended as a substitute for an official pre-flight weather briefing.

12:20:40 UTC

GVSV METAR
São Pedro Airport
São Pedro, Cape Verde
Current

21 mins ago

GVSV 161200Z 06019KT 9999 SCT023 28/19 Q1014 NOSIG
Observed
Jul-16 @ 12:00 UTC
Wind
  • 060° at 19 KTS
Visibility
10,000+ meters
Flight Rules
VFR
Cloud Levels
  • Scattered at 2,300' AGL
Temperature
28°C / 82°F
Dewpoint
19°C / 66°F
Heat Index
29°C / 84°F
Humidity
58%
Altimeter
29.94" Hg
Pressure
1013.92 hPa
Previous

1 hour ago

GVSV 161100Z 05017KT 9999 SCT022 28/18 Q1014 NOSIG
Observed
Jul-16 @ 11:00 UTC
Wind
  • 050° at 17 KTS
Visibility
10,000+ meters
Flight Rules
VFR
Cloud Levels
  • Scattered at 2,200' AGL
Temperature
28°C / 82°F
Dewpoint
18°C / 64°F
Heat Index
29°C / 84°F
Humidity
55%
Altimeter
29.94" Hg
Pressure
1013.92 hPa
Previous

2 hours ago

GVSV 161000Z 06015KT 9999 BKN022 27/19 Q1014 NOSIG
Observed
Jul-16 @ 10:00 UTC
Wind
  • 060° at 15 KTS
Visibility
10,000+ meters
Flight Rules
MVFR
Cloud Levels
  • Broken at 2,200' AGL
Temperature
27°C / 81°F
Dewpoint
19°C / 66°F
Heat Index
28°C / 83°F
Humidity
62%
Altimeter
29.94" Hg
Pressure
1013.92 hPa